Main page
METAR-TAF:

METAR-TAF

Airports :

Begumpet Airport

Hyderabad, India

latitude: 17-27N, longitude: 078-28E, elevation: 530 m

Current weather observation

The report was made 1 hour and 52 minutes ago, at 16:00 UTC
Wind 3 kt from the East/Northeast
Temperature 25°C
Humidity 47%
Pressure 1017 hPa
Visibility: 6000 m

METAR: VOHY 151600Z 06003KT 6000 NSC 25/13 Q1017 NOSIG

Time: 23:22 (17:52 UTC)

Forecast

The report was made 18 hours and 52 minutes ago, at 23:00 UTC
Forecast valid from 15 at 00 UTC to 15 at 09 UTC
Wind 3 kt from variable directions
Visibility: 5000 m
haze
Becoming
from 15 at 04 UTC to 15 at 06 UTC
Wind 6 kt from the East/Northeast
Visibility: 6000 m

TAF: VOHY 142300Z 1500/1509 VRB03KT 5000 HZ NSC BECMG 1504/1506 07006KT 6000 NSC

Weather observations and forecasts of more than 4000 airports (METAR and TAF reports).

The available stations are represented by yellow and red dots on the map.

Hover mouse over dot to see the name of the station.

Then click to see weather observations and forecasts.

To change the map : click on the green buttons with a black cross to zoom in, on the green button with a dash to zoom out, or on the green arrows for adjacent maps.


METAR-TAF: